St. Elmo — WDG2405 — position and weather

sailwx.info

Track history (hours):
 
Tides and Currents Weather Stations Pressure Air Temp Water Temp Dewpoint Dewpoint Depression Visibility Wind Speed Wind Dir Waves Ship Positions

St. Elmo

Owner: Marquette Transportation Company Gulf-Inland, LLC, Jefferson, LA. More information available from US FCC via Universal Licensing System and Coast Guard Vessel Documentation Center.

Last reported at 2015-Jun-26 10:33 UTC. Time now 2015-Jul-01 23:12 UTC.
Position N 29°34' W 094°56'.

; draft 3.2 m.

MMSI: 367515330.

Date/timePositionNaut miles runAvg speedWind from/ knotsBaromVisibWave heightAir tempDewpointWater temp
2015-Jun-26 10:33N 29°34' W 094°56'5 5.5
2015-Jun-26 09:33N 29°37' W 095°01'0 0.1
2015-Jun-26 08:33N 29°37' W 095°02'0 0.0
2015-Jun-26 07:33N 29°37' W 095°02'0 0.0
2015-Jun-26 06:33N 29°37' W 095°02'0 0.0
2015-Jun-26 05:33N 29°37' W 095°01'0 0.2
2015-Jun-26 04:33N 29°37' W 095°01'0 0.0
2015-Jun-26 03:34N 29°37' W 095°01'0 0.0
2015-Jun-26 02:33N 29°37' W 095°01'0 0.0
2015-Jun-26 01:34N 29°37' W 095°01'0 0.0
2015-Jun-26 00:33N 29°37' W 095°01'0 0.0
2015-Jun-25 23:33N 29°37' W 095°01'0 0.0
2015-Jun-25 22:33N 29°37' W 095°01'0 0.0
2015-Jun-25 21:33N 29°37' W 095°01'0 0.0
2015-Jun-25 20:33N 29°37' W 095°01'0 0.0
2015-Jun-25 19:33N 29°37' W 095°01'0 0.0
2015-Jun-25 18:34N 29°37' W 095°01'0 0.0
2015-Jun-25 17:34N 29°37' W 095°01'0 0.0
2015-Jun-25 16:33N 29°37' W 095°01'0 0.0
2015-Jun-25 15:33N 29°37' W 095°01'0 0.0
2015-Jun-25 14:33N 29°37' W 095°01'0 0.0
2015-Jun-25 13:33N 29°37' W 095°01'0 0.0
2015-Jun-25 12:34N 29°37' W 095°01'0 0.0
2015-Jun-25 11:33N 29°37' W 095°01'0 0.0
2015-Jun-25 10:33N 29°37' W 095°01'0 0.2
2015-Jun-25 09:34N 29°37' W 095°02'0 0.0
2015-Jun-25 08:29N 29°37' W 095°02'0 0.0
2015-Jun-25 07:34N 29°37' W 095°02'0 0.0
2015-Jun-25 06:33N 29°37' W 095°02'0 0.0
2015-Jun-25 05:33N 29°37' W 095°02'0 0.0
2015-Jun-25 04:34N 29°37' W 095°02'0 0.0
2015-Jun-25 03:34N 29°37' W 095°02'0 0.0
2015-Jun-25 02:34N 29°37' W 095°02'0 0.0
2015-Jun-25 01:33N 29°37' W 095°02'0 0.0
2015-Jun-25 00:33N 29°37' W 095°02'0 0.0
2015-Jun-24 23:34N 29°37' W 095°01'3 3.3
2015-Jun-24 22:33N 29°37' W 094°58'6 6.5
2015-Jun-24 21:33N 29°32' W 094°53'  
2015-Jun-20 10:33N 29°36' W 094°57'4 4.3
2015-Jun-20 09:33N 29°37' W 095°01'0 0.0
2015-Jun-20 08:33N 29°37' W 095°02'0 0.0
2015-Jun-20 07:33N 29°37' W 095°02'0 0.0
2015-Jun-20 06:33N 29°37' W 095°02'0 0.0
2015-Jun-20 05:33N 29°37' W 095°02'0 0.0
2015-Jun-20 04:33N 29°37' W 095°02'0 0.0
2015-Jun-20 03:33N 29°37' W 095°02'0 0.0
2015-Jun-20 02:33N 29°37' W 095°02'0 0.2
2015-Jun-20 01:33N 29°37' W 095°01'0 0.0
2015-Jun-20 00:33N 29°37' W 095°01'5 5.2
2015-Jun-19 23:33N 29°35' W 094°56'  
Track history (hours):
 
Tides and Currents Weather Stations Pressure Air Temp Water Temp Dewpoint Dewpoint Depression Visibility Wind Speed Wind Dir Waves Ship Positions

St. Elmo

Owner: Marquette Transportation Company Gulf-Inland, LLC, Jefferson, LA. More information available from US FCC via Universal Licensing System and Coast Guard Vessel Documentation Center.

Last reported at 2015-Jun-26 10:33 UTC. Time now 2015-Jul-01 23:12 UTC.
Position N 29°34' W 094°56'.

; draft 3.2 m.

MMSI: 367515330.

Date/timePositionNaut miles runAvg speedWind from/ knotsBaromVisibWave heightAir tempDewpointWater temp
2015-Jun-26 10:33N 29°34' W 094°56'5 5.5
2015-Jun-26 09:33N 29°37' W 095°01'0 0.1
2015-Jun-26 08:33N 29°37' W 095°02'0 0.0
2015-Jun-26 07:33N 29°37' W 095°02'0 0.0
2015-Jun-26 06:33N 29°37' W 095°02'0 0.0
2015-Jun-26 05:33N 29°37' W 095°01'0 0.2
2015-Jun-26 04:33N 29°37' W 095°01'0 0.0
2015-Jun-26 03:34N 29°37' W 095°01'0 0.0
2015-Jun-26 02:33N 29°37' W 095°01'0 0.0
2015-Jun-26 01:34N 29°37' W 095°01'0 0.0
2015-Jun-26 00:33N 29°37' W 095°01'0 0.0
2015-Jun-25 23:33N 29°37' W 095°01'0 0.0
2015-Jun-25 22:33N 29°37' W 095°01'0 0.0
2015-Jun-25 21:33N 29°37' W 095°01'0 0.0
2015-Jun-25 20:33N 29°37' W 095°01'0 0.0
2015-Jun-25 19:33N 29°37' W 095°01'0 0.0
2015-Jun-25 18:34N 29°37' W 095°01'0 0.0
2015-Jun-25 17:34N 29°37' W 095°01'0 0.0
2015-Jun-25 16:33N 29°37' W 095°01'0 0.0
2015-Jun-25 15:33N 29°37' W 095°01'0 0.0
2015-Jun-25 14:33N 29°37' W 095°01'0 0.0
2015-Jun-25 13:33N 29°37' W 095°01'0 0.0
2015-Jun-25 12:34N 29°37' W 095°01'0 0.0
2015-Jun-25 11:33N 29°37' W 095°01'0 0.0
2015-Jun-25 10:33N 29°37' W 095°01'0 0.2
2015-Jun-25 09:34N 29°37' W 095°02'0 0.0
2015-Jun-25 08:29N 29°37' W 095°02'0 0.0
2015-Jun-25 07:34N 29°37' W 095°02'0 0.0
2015-Jun-25 06:33N 29°37' W 095°02'0 0.0
2015-Jun-25 05:33N 29°37' W 095°02'0 0.0
2015-Jun-25 04:34N 29°37' W 095°02'0 0.0
2015-Jun-25 03:34N 29°37' W 095°02'0 0.0
2015-Jun-25 02:34N 29°37' W 095°02'0 0.0
2015-Jun-25 01:33N 29°37' W 095°02'0 0.0
2015-Jun-25 00:33N 29°37' W 095°02'0 0.0
2015-Jun-24 23:34N 29°37' W 095°01'3 3.3
2015-Jun-24 22:33N 29°37' W 094°58'6 6.5
2015-Jun-24 21:33N 29°32' W 094°53'  
2015-Jun-20 10:33N 29°36' W 094°57'4 4.3
2015-Jun-20 09:33N 29°37' W 095°01'0 0.0
2015-Jun-20 08:33N 29°37' W 095°02'0 0.0
2015-Jun-20 07:33N 29°37' W 095°02'0 0.0
2015-Jun-20 06:33N 29°37' W 095°02'0 0.0
2015-Jun-20 05:33N 29°37' W 095°02'0 0.0
2015-Jun-20 04:33N 29°37' W 095°02'0 0.0
2015-Jun-20 03:33N 29°37' W 095°02'0 0.0
2015-Jun-20 02:33N 29°37' W 095°02'0 0.2
2015-Jun-20 01:33N 29°37' W 095°01'0 0.0
2015-Jun-20 00:33N 29°37' W 095°01'5 5.2
2015-Jun-19 23:33N 29°35' W 094°56'  

Dump ship's entire track history